Time;durP1;ratioP1;P1;durP2;ratioP2;P2;SDS_P1;SDS_P2;PMS_P1;PMS_P2;Temp;Humidity;BMP_temperature;BMP_pressure;BME280_temperature;BME280_humidity;BME280_pressure;Samples;Min_cycle;Max_cycle;Signal;HPM_P1;HPM_P2
2020/12/23 00:00:15;;;;;;;4.72;2.53;;;;;;;18.85;56.57;101402.50;4807159;29;20125;-66
2020/12/23 00:02:42;;;;;;;5.10;3.63;;;;;;;18.86;56.51;101411.25;4816969;29;20043;-66
2020/12/23 00:05:14;;;;;;;5.22;3.05;;;;;;;18.86;56.63;101413.88;4821801;29;20435;-67
2020/12/23 00:07:39;;;;;;;4.82;2.95;;;;;;;18.83;56.50;101413.84;4821760;29;20057;-67
2020/12/23 00:10:06;;;;;;;4.90;3.05;;;;;;;18.83;56.51;101406.00;4807225;29;20453;-67
2020/12/23 00:12:34;;;;;;;5.38;2.50;;;;;;;18.82;56.71;101391.16;4822409;29;20038;-66
2020/12/23 00:15:00;;;;;;;5.07;2.90;;;;;;;18.83;56.65;101396.38;4824756;29;20046;-67
2020/12/23 00:17:26;;;;;;;3.50;2.75;;;;;;;18.84;56.72;101384.16;4805588;29;20074;-67
2020/12/23 00:19:51;;;;;;;4.25;2.30;;;;;;;18.82;56.79;101381.56;4824598;29;20061;-67
2020/12/23 00:22:17;;;;;;;2.97;2.45;;;;;;;18.83;56.76;101385.03;4820393;29;20190;-67
2020/12/23 00:24:43;;;;;;;4.45;2.08;;;;;;;18.83;56.74;101383.28;4801108;29;20043;-66
2020/12/23 00:27:09;;;;;;;3.55;2.55;;;;;;;18.80;56.68;101369.31;4804927;29;20084;-67
2020/12/23 00:29:35;;;;;;;4.70;2.58;;;;;;;18.80;56.70;101364.97;4822381;29;20867;-66
2020/12/23 00:32:00;;;;;;;5.60;2.50;;;;;;;18.79;56.71;101360.59;4789495;29;20043;-67
2020/12/23 00:34:25;;;;;;;3.75;2.60;;;;;;;18.80;56.68;101358.84;4822747;29;20038;-66
2020/12/23 00:36:55;;;;;;;4.40;2.85;;;;;;;18.76;56.57;101359.69;4822265;29;20053;-66
2020/12/23 00:39:21;;;;;;;3.42;2.47;;;;;;;18.81;56.43;101371.06;4823923;29;20099;-67
2020/12/23 00:41:46;;;;;;;6.32;3.38;;;;;;;18.79;56.58;101359.72;4808558;29;20038;-67
2020/12/23 00:44:12;;;;;;;3.80;2.33;;;;;;;18.79;56.78;101359.72;4822522;29;20040;-66
2020/12/23 00:46:38;;;;;;;2.42;2.20;;;;;;;18.77;56.63;101354.47;4805809;29;20447;-67
2020/12/23 00:49:03;;;;;;;3.25;2.42;;;;;;;18.73;56.49;101342.22;4807210;29;20034;-67
2020/12/23 00:51:28;;;;;;;2.60;2.03;;;;;;;18.76;56.67;101346.59;4821607;29;20034;-66
2020/12/23 00:53:54;;;;;;;3.15;2.35;;;;;;;18.73;56.71;101338.72;4820211;29;20068;-67
2020/12/23 00:56:19;;;;;;;4.43;2.65;;;;;;;18.77;56.66;101351.84;4804686;29;20038;-66
2020/12/23 00:58:45;;;;;;;3.42;2.40;;;;;;;18.75;56.64;101339.59;4821788;29;20524;-66
2020/12/23 01:01:10;;;;;;;3.33;2.67;;;;;;;18.76;56.63;101352.72;4818990;29;20104;-66
2020/12/23 01:03:36;;;;;;;4.15;2.63;;;;;;;18.75;56.87;101334.38;4820658;29;20026;-66
2020/12/23 01:06:06;;;;;;;3.22;2.72;;;;;;;18.76;56.62;101341.34;4819649;29;20077;-66
2020/12/23 01:08:31;;;;;;;2.95;2.15;;;;;;;18.75;56.71;101337.84;4818268;29;20030;-67
2020/12/23 01:10:57;;;;;;;3.53;2.85;;;;;;;18.74;56.68;101351.81;4801930;29;20065;-66
2020/12/23 01:13:22;;;;;;;3.28;2.00;;;;;;;18.73;56.66;101347.47;4804436;29;20122;-66
2020/12/23 01:15:47;;;;;;;4.60;2.75;;;;;;;18.76;56.60;101357.06;4822937;29;20050;-66
2020/12/23 01:18:13;;;;;;;3.47;2.25;;;;;;;18.75;56.48;101347.47;4805300;29;20042;-66
2020/12/23 01:20:38;;;;;;;3.00;2.13;;;;;;;18.72;56.73;101340.47;4822991;29;20091;-67
2020/12/23 01:23:03;;;;;;;3.92;2.35;;;;;;;18.72;56.95;101334.34;4792368;29;20061;-67
2020/12/23 01:25:29;;;;;;;3.17;2.58;;;;;;;18.73;56.40;101330.84;4818433;29;20062;-67
2020/12/23 01:27:55;;;;;;;3.17;2.05;;;;;;;18.74;56.59;101337.84;4821022;29;20034;-67
2020/12/23 01:30:20;;;;;;;4.60;2.53;;;;;;;18.73;56.50;101330.84;4822225;29;20099;-67
2020/12/23 01:32:46;;;;;;;4.35;2.50;;;;;;;18.71;56.52;101337.84;4806729;29;20409;-67
2020/12/23 01:35:11;;;;;;;2.97;2.28;;;;;;;18.71;56.67;101340.47;4792009;29;20037;-67
2020/12/23 01:37:36;;;;;;;4.28;2.25;;;;;;;18.71;56.51;101338.72;4822242;29;20105;-68
2020/12/23 01:40:05;;;;;;;3.50;2.28;;;;;;;18.71;56.81;101329.97;4822977;29;20034;-68
2020/12/23 01:42:35;;;;;;;3.28;1.90;;;;;;;18.71;56.61;101320.38;4805985;29;20058;-67
2020/12/23 01:45:01;;;;;;;3.38;2.08;;;;;;;18.68;56.61;101315.16;4806156;29;20034;-67
2020/12/23 01:47:29;;;;;;;3.00;1.88;;;;;;;18.70;56.39;101320.38;4803082;29;20099;-67
2020/12/23 01:49:55;;;;;;;3.25;2.30;;;;;;;18.69;56.77;101311.66;4819914;29;20079;-67
2020/12/23 01:52:22;;;;;;;3.58;2.15;;;;;;;18.70;56.60;101312.50;4818179;29;20039;-67
2020/12/23 01:54:48;;;;;;;4.28;2.08;;;;;;;18.67;56.65;101307.28;4822694;29;20068;-67
2020/12/23 01:57:14;;;;;;;3.05;1.85;;;;;;;18.67;56.62;101308.16;4823647;29;20042;-67
2020/12/23 01:59:43;;;;;;;5.78;3.47;;;;;;;18.67;56.60;101305.53;4805878;29;20430;-67
2020/12/23 02:02:31;;;;;;;5.30;2.70;;;;;;;18.67;56.56;101308.16;4825644;29;20053;-67
2020/12/23 02:04:58;;;;;;;2.60;1.88;;;;;;;18.66;56.68;101301.19;4801180;29;20034;-67
2020/12/23 02:07:25;;;;;;;2.78;2.03;;;;;;;18.68;56.57;101294.19;4809104;29;20026;-67
2020/12/23 02:09:53;;;;;;;6.97;3.00;;;;;;;18.64;56.60;101286.31;4821687;29;20117;-67
2020/12/23 02:12:19;;;;;;;3.60;1.92;;;;;;;18.66;56.78;101276.72;4808545;29;20039;-67
2020/12/23 02:14:45;;;;;;;3.58;2.17;;;;;;;18.64;56.53;101267.97;4806022;29;20083;-67
2020/12/23 02:17:11;;;;;;;2.80;2.00;;;;;;;18.67;56.62;101271.50;4806624;29;20034;-67
2020/12/23 02:19:49;;;;;;;3.15;2.10;;;;;;;18.66;56.70;101268.88;4809076;29;20038;-72
2020/12/23 02:22:35;;;;;;;3.15;2.08;;;;;;;18.65;56.53;101259.25;4816036;29;20041;-71
2020/12/23 02:25:00;;;;;;;3.33;1.98;;;;;;;18.66;56.76;101259.25;4825490;29;20050;-71
2020/12/23 02:27:26;;;;;;;3.58;2.17;;;;;;;18.66;56.52;101258.38;4827341;29;20057;-71
2020/12/23 02:29:54;;;;;;;3.05;1.77;;;;;;;18.65;56.61;101262.75;4809026;29;20042;-71
2020/12/23 02:32:20;;;;;;;3.40;2.60;;;;;;;18.63;56.51;101259.25;4806230;29;20073;-71
2020/12/23 02:34:46;;;;;;;3.33;1.98;;;;;;;18.63;56.52;101254.00;4825622;29;20042;-71
2020/12/23 02:37:12;;;;;;;3.35;2.15;;;;;;;18.66;56.64;101247.91;4825173;29;20482;-71
2020/12/23 02:39:39;;;;;;;3.60;2.42;;;;;;;18.65;56.69;101240.91;4820318;29;20042;-71
2020/12/23 02:42:06;;;;;;;5.60;2.65;;;;;;;18.63;56.68;101238.28;4809383;29;20037;-73
2020/12/23 02:44:31;;;;;;;5.43;2.40;;;;;;;18.60;56.56;101226.94;4819041;29;20038;-72
2020/12/23 02:47:02;;;;;;;5.10;2.22;;;;;;;18.63;56.68;101232.19;4824420;29;20490;-71
2020/12/23 02:49:28;;;;;;;3.33;2.30;;;;;;;18.61;56.74;101229.56;4824434;29;20049;-71
2020/12/23 02:51:56;;;;;;;2.90;2.33;;;;;;;18.62;56.73;101233.94;4826710;29;20031;-71
2020/12/23 02:54:22;;;;;;;3.22;2.20;;;;;;;18.56;56.82;101219.03;4820826;29;20496;-71
2020/12/23 02:56:47;;;;;;;3.38;2.00;;;;;;;18.61;56.82;101228.69;4818016;29;20494;-72
2020/12/23 02:59:13;;;;;;;3.35;2.20;;;;;;;18.60;56.73;101219.06;4821771;29;20073;-71
2020/12/23 03:01:39;;;;;;;3.25;2.22;;;;;;;18.61;57.16;101223.44;4822563;29;20475;-72
2020/12/23 03:04:05;;;;;;;4.75;2.35;;;;;;;18.59;56.80;101214.72;4826178;29;20399;-71
2020/12/23 03:06:31;;;;;;;4.20;2.25;;;;;;;18.57;56.86;101214.66;4824999;29;20486;-71
2020/12/23 03:08:57;;;;;;;4.38;2.13;;;;;;;18.60;56.96;101222.56;4824318;29;20034;-71
2020/12/23 03:11:22;;;;;;;4.03;2.20;;;;;;;18.61;56.71;101223.44;4824983;29;20405;-71
2020/12/23 03:13:48;;;;;;;3.13;1.77;;;;;;;18.61;56.75;101212.97;4808261;29;20038;-71
2020/12/23 03:16:13;;;;;;;3.20;2.40;;;;;;;18.61;56.61;101215.59;4822145;29;20121;-71
2020/12/23 03:18:39;;;;;;;3.67;2.60;;;;;;;18.59;57.00;101212.97;4808186;29;20038;-71
2020/12/23 03:21:08;;;;;;;3.13;2.05;;;;;;;18.59;56.76;101207.72;4790508;29;20046;-71
2020/12/23 03:23:34;;;;;;;3.83;2.20;;;;;;;18.55;56.64;101201.59;4825621;29;20039;-72
2020/12/23 03:26:00;;;;;;;3.38;2.20;;;;;;;18.58;56.75;101213.84;4821959;29;20098;-72
2020/12/23 03:28:25;;;;;;;2.95;2.30;;;;;;;18.56;56.79;101202.47;4805375;29;20481;-71
2020/12/23 03:30:51;;;;;;;3.50;2.13;;;;;;;18.52;56.85;101192.88;4800516;29;20041;-71
2020/12/23 03:33:16;;;;;;;3.22;2.47;;;;;;;18.55;56.80;101192.88;4808812;29;20038;-71
2020/12/23 03:35:42;;;;;;;3.47;2.63;;;;;;;18.58;56.74;101198.13;4820968;29;20029;-71
2020/12/23 03:38:07;;;;;;;4.88;2.42;;;;;;;18.56;56.84;101195.47;4807306;29;20390;-72
2020/12/23 03:40:32;;;;;;;3.30;2.22;;;;;;;18.56;56.74;101192.84;4824338;29;20486;-71
2020/12/23 03:42:58;;;;;;;3.53;2.50;;;;;;;18.55;56.82;101182.41;4809438;29;20135;-71
2020/12/23 03:45:23;;;;;;;2.30;1.92;;;;;;;18.54;56.83;101176.28;4823171;29;20090;-71
2020/12/23 03:47:48;;;;;;;2.58;1.88;;;;;;;18.55;56.71;101177.16;4808138;29;20034;-71
2020/12/23 03:50:14;;;;;;;3.45;2.50;;;;;;;18.55;56.75;101174.53;4819492;29;20039;-72
2020/12/23 03:52:39;;;;;;;3.13;1.92;;;;;;;18.53;56.83;101169.28;4817130;29;20042;-71
2020/12/23 03:55:04;;;;;;;2.97;2.15;;;;;;;18.55;56.79;101167.56;4822311;29;20082;-71
2020/12/23 03:57:30;;;;;;;4.10;2.58;;;;;;;18.54;56.72;101164.94;4806431;29;20185;-71
2020/12/23 03:59:55;;;;;;;3.78;2.20;;;;;;;18.54;56.81;101171.03;4819827;29;20075;-71
2020/12/23 04:02:20;;;;;;;2.25;1.80;;;;;;;18.52;56.98;101164.06;4825533;29;20088;-71
2020/12/23 04:04:46;;;;;;;3.53;2.35;;;;;;;18.52;56.71;101167.53;4808728;29;20062;-71
2020/12/23 04:07:11;;;;;;;3.97;2.40;;;;;;;18.53;56.91;101164.06;4824519;29;20046;-71
2020/12/23 04:09:37;;;;;;;3.33;2.20;;;;;;;18.54;56.91;101170.16;4820456;29;20061;-71
2020/12/23 04:12:02;;;;;;;4.88;2.63;;;;;;;18.53;56.90;101156.19;4822906;29;20034;-71
2020/12/23 04:14:27;;;;;;;2.17;1.60;;;;;;;18.53;56.58;101158.81;4804207;29;20095;-71
2020/12/23 04:16:53;;;;;;;3.22;2.03;;;;;;;18.53;56.81;101158.81;4793262;29;20502;-71
2020/12/23 04:19:18;;;;;;;3.97;1.92;;;;;;;18.52;56.73;101161.44;4824580;29;20451;-71
2020/12/23 04:21:43;;;;;;;3.25;2.08;;;;;;;18.52;56.81;101162.31;4824164;29;20371;-71
2020/12/23 04:24:09;;;;;;;4.40;2.17;;;;;;;18.54;56.61;101164.94;4822792;29;20555;-71
2020/12/23 04:26:34;;;;;;;3.03;2.00;;;;;;;18.50;56.63;101152.69;4824432;29;20042;-71
2020/12/23 04:28:59;;;;;;;3.38;2.10;;;;;;;18.52;56.75;101146.59;4813729;29;20057;-71
2020/12/23 04:31:25;;;;;;;2.72;1.98;;;;;;;18.52;56.65;101137.88;4823875;29;20450;-71
2020/12/23 04:33:50;;;;;;;3.05;1.70;;;;;;;18.51;56.94;101137.00;4823641;29;20482;-70
2020/12/23 04:36:15;;;;;;;2.83;2.00;;;;;;;18.51;56.88;101129.13;4823146;29;20462;-68
2020/12/23 04:38:41;;;;;;;2.50;1.80;;;;;;;18.51;56.78;101128.25;4802998;29;20039;-67
2020/12/23 04:41:07;;;;;;;3.13;1.67;;;;;;;18.50;56.97;101131.75;4801668;29;20470;-67
2020/12/23 04:43:32;;;;;;;2.85;1.80;;;;;;;18.48;56.71;101116.03;4790231;29;20034;-67
2020/12/23 04:45:58;;;;;;;4.10;2.58;;;;;;;18.49;56.80;101114.28;4802951;29;20039;-67
2020/12/23 04:48:25;;;;;;;3.33;2.80;;;;;;;18.48;56.94;101112.53;4805432;29;20062;-67
2020/12/23 04:50:55;;;;;;;2.83;2.30;;;;;;;18.49;56.77;101109.94;4821024;29;20034;-66
2020/12/23 04:53:22;;;;;;;3.38;2.10;;;;;;;18.47;56.75;101097.69;4820734;29;20066;-67
2020/12/23 04:55:48;;;;;;;3.13;2.13;;;;;;;18.46;57.03;101098.56;4800004;29;20064;-67
2020/12/23 04:58:14;;;;;;;3.25;2.10;;;;;;;18.47;56.84;101085.47;4820797;29;20502;-68
2020/12/23 05:00:40;;;;;;;2.63;1.65;;;;;;;18.45;56.73;101083.72;4822344;29;20042;-67
2020/12/23 05:03:05;;;;;;;3.38;2.38;;;;;;;18.48;56.89;101102.94;4821611;29;20501;-67
2020/12/23 05:05:30;;;;;;;3.67;2.25;;;;;;;18.47;56.83;101095.94;4805870;29;20045;-67
2020/12/23 05:07:56;;;;;;;3.03;1.92;;;;;;;18.49;56.92;101098.56;4817351;29;20078;-67
2020/12/23 05:10:26;;;;;;;3.30;2.20;;;;;;;18.46;56.93;101093.34;4822518;29;20436;-67
2020/12/23 05:12:52;;;;;;;2.83;1.88;;;;;;;18.47;56.83;101098.56;4819247;29;20030;-67
2020/12/23 05:15:18;;;;;;;2.92;1.95;;;;;;;18.47;56.82;101092.47;4819496;29;20050;-66
2020/12/23 05:17:45;;;;;;;3.00;1.98;;;;;;;18.47;56.81;101093.34;4818145;29;20037;-67
2020/12/23 05:20:10;;;;;;;3.53;2.13;;;;;;;18.46;56.56;101098.56;4822322;29;20034;-67
2020/12/23 05:22:36;;;;;;;3.05;2.25;;;;;;;18.44;56.93;101088.09;4817250;29;20041;-67
2020/12/23 05:25:02;;;;;;;2.63;1.83;;;;;;;18.42;56.92;101082.00;4806678;29;20065;-67
2020/12/23 05:27:32;;;;;;;2.75;1.90;;;;;;;18.44;56.84;101077.63;4815747;29;20038;-67
2020/12/23 05:29:59;;;;;;;3.63;2.40;;;;;;;18.44;57.01;101075.00;4819879;29;20027;-67
2020/12/23 05:32:25;;;;;;;3.05;2.20;;;;;;;18.44;56.88;101068.88;4812948;29;20039;-67
2020/12/23 05:34:51;;;;;;;2.75;2.08;;;;;;;18.46;56.72;101072.38;4819911;29;20038;-67
2020/12/23 05:37:21;;;;;;;3.00;1.95;;;;;;;18.45;56.66;101065.41;4803936;29;20405;-67
2020/12/23 05:39:47;;;;;;;2.72;2.20;;;;;;;18.49;56.59;101065.41;4820727;29;20042;-68
2020/12/23 05:42:17;;;;;;;4.57;2.53;;;;;;;18.50;56.61;101068.91;4822091;29;20607;-69
2020/12/23 05:44:50;;;;;;;2.90;1.92;;;;;;;18.59;56.48;101063.66;4817154;29;20035;-71
2020/12/23 05:47:27;;;;;;;2.30;1.65;;;;;;;18.71;55.94;101047.91;4818005;29;20035;-72
2020/12/23 05:49:54;;;;;;;3.67;1.98;;;;;;;18.84;55.79;101061.84;4823469;29;20045;-71
2020/12/23 05:52:21;;;;;;;2.60;1.88;;;;;;;18.82;56.06;101054.03;4805786;29;20066;-72
2020/12/23 05:54:51;;;;;;;3.17;1.70;;;;;;;18.94;55.63;101054.88;4790322;29;20073;-71
2020/12/23 05:57:16;;;;;;;2.97;2.08;;;;;;;18.99;55.54;101050.47;4822370;29;20501;-71
2020/12/23 05:59:42;;;;;;;5.78;2.17;;;;;;;18.96;55.59;101055.72;4805589;29;20059;-71
2020/12/23 06:02:11;;;;;;;4.32;1.67;;;;;;;18.96;55.70;101060.94;4821548;29;20045;-72
2020/12/23 06:04:41;;;;;;;2.47;1.77;;;;;;;19.02;55.48;101058.31;4820109;29;20042;-73
2020/12/23 06:07:07;;;;;;;2.90;2.30;;;;;;;19.09;55.32;101053.03;4819326;29;20048;-72
2020/12/23 06:09:38;;;;;;;3.58;2.00;;;;;;;19.08;55.46;101053.06;4798074;29;20042;-72
2020/12/23 06:12:17;;;;;;;2.92;2.15;;;;;;;19.05;55.76;101038.22;4805267;29;20416;-72
2020/12/23 06:14:51;;;;;;;3.83;1.98;;;;;;;19.06;55.65;101033.84;4821074;29;20121;-71
2020/12/23 06:17:18;;;;;;;7.40;2.22;;;;;;;19.10;55.71;101030.31;4824095;29;20022;-73
2020/12/23 06:19:46;;;;;;;3.97;2.50;;;;;;;19.09;56.16;101037.31;4821977;29;20026;-73
2020/12/23 06:22:11;;;;;;;4.75;2.80;;;;;;;19.08;56.00;101032.97;4819871;29;20056;-71
2020/12/23 06:24:37;;;;;;;7.20;2.97;;;;;;;19.10;56.20;101011.97;4820547;29;20035;-76
2020/12/23 06:27:08;;;;;;;6.55;3.08;;;;;;;19.10;56.56;101011.97;4822169;29;20052;-74
2020/12/23 06:29:40;;;;;;;6.13;3.05;;;;;;;19.06;56.49;101007.63;4797411;29;20047;-70
2020/12/23 06:32:17;;;;;;;6.55;2.83;;;;;;;19.09;56.29;101011.09;4802743;29;20436;-72
2020/12/23 06:34:43;;;;;;;8.02;3.22;;;;;;;19.10;56.45;101017.22;4804990;29;20037;-72
2020/12/23 06:37:21;;;;;;;5.03;3.05;;;;;;;19.08;56.52;101014.63;4807178;29;20042;-71
2020/12/23 06:39:47;;;;;;;7.82;3.33;;;;;;;19.11;56.49;101016.34;4822288;29;20611;-71
2020/12/23 06:42:13;;;;;;;4.88;2.97;;;;;;;19.12;56.55;101015.44;4826631;29;20505;-72
2020/12/23 06:44:41;;;;;;;7.05;2.42;;;;;;;19.09;56.46;101015.47;4817889;29;20030;-72
2020/12/23 06:47:07;;;;;;;4.68;3.13;;;;;;;19.15;56.26;101015.44;4825640;29;20070;-72
2020/12/23 06:49:37;;;;;;;3.65;2.60;;;;;;;19.15;56.61;101008.47;4826036;29;20030;-72
2020/12/23 06:52:21;;;;;;;7.68;3.08;;;;;;;19.09;56.47;101012.84;4826655;29;20038;-71
2020/12/23 06:54:53;;;;;;;4.07;2.72;;;;;;;19.14;56.33;101013.72;4825666;29;20033;-72
2020/12/23 06:57:36;;;;;;;6.75;2.47;;;;;;;19.18;56.44;101008.44;4830536;29;20190;-72
2020/12/23 07:00:14;;;;;;;5.30;2.63;;;;;;;19.11;56.46;100998.84;4824272;29;20038;-71
2020/12/23 07:02:48;;;;;;;6.05;2.95;;;;;;;19.19;56.54;100998.84;4826318;29;20034;-71
2020/12/23 07:05:23;;;;;;;4.70;2.65;;;;;;;19.24;56.36;100991.78;4823857;29;20033;-71
2020/12/23 07:07:52;;;;;;;3.63;2.30;;;;;;;19.17;56.26;100979.63;4825614;29;20041;-70
2020/12/23 07:10:19;;;;;;;4.72;2.90;;;;;;;19.19;56.59;100965.63;4809670;29;20034;-71
2020/12/23 07:12:49;;;;;;;4.38;2.22;;;;;;;19.24;56.27;100974.31;4809695;29;20095;-72
2020/12/23 07:15:22;;;;;;;3.15;2.13;;;;;;;19.18;56.60;100984.84;4829097;29;20045;-71
2020/12/23 07:17:50;;;;;;;5.18;2.10;;;;;;;19.21;56.44;100978.72;4809271;29;20126;-71
2020/12/23 07:20:18;;;;;;;4.22;2.65;;;;;;;19.24;56.55;100978.69;4821420;29;20030;-71
2020/12/23 07:22:51;;;;;;;4.55;2.35;;;;;;;19.20;56.53;100975.25;4801477;29;20030;-71
2020/12/23 07:25:27;;;;;;;3.97;2.40;;;;;;;19.19;56.45;100980.47;4831959;29;20037;-71
2020/12/23 07:27:59;;;;;;;3.67;2.25;;;;;;;19.27;56.33;100986.53;4825088;29;20039;-71
2020/12/23 07:30:26;;;;;;;4.25;2.13;;;;;;;19.24;56.26;100987.41;4825663;29;20394;-71
2020/12/23 07:33:09;;;;;;;3.58;1.70;;;;;;;19.21;56.58;100987.44;4811097;29;20042;-72
2020/12/23 07:35:36;;;;;;;5.30;2.20;;;;;;;19.27;56.26;100983.91;4825749;29;20026;-71
2020/12/23 07:38:04;;;;;;;3.05;2.20;;;;;;;19.23;56.48;100980.44;4811435;29;20070;-71
2020/12/23 07:40:31;;;;;;;4.57;2.30;;;;;;;19.21;56.56;100983.97;4824866;29;20033;-71
2020/12/23 07:42:57;;;;;;;3.00;1.60;;;;;;;19.30;56.25;100991.78;4810661;29;20018;-71
2020/12/23 07:45:25;;;;;;;4.38;2.70;;;;;;;19.32;56.35;100994.41;4831072;29;20513;-71
2020/12/23 07:47:54;;;;;;;3.58;2.08;;;;;;;19.25;56.45;100983.94;4814430;29;20045;-71
2020/12/23 07:50:21;;;;;;;4.60;2.17;;;;;;;19.19;56.43;100981.34;4825602;29;20026;-71
2020/12/23 07:52:46;;;;;;;3.03;2.05;;;;;;;19.15;56.77;100986.63;4830397;29;20061;-71
2020/12/23 07:55:16;;;;;;;2.55;1.75;;;;;;;19.10;56.83;100981.38;4819015;29;20069;-70
2020/12/23 07:57:42;;;;;;;3.58;2.10;;;;;;;19.08;57.07;100987.53;4802593;29;20062;-71
2020/12/23 08:00:10;;;;;;;2.50;1.83;;;;;;;19.04;57.03;100980.56;4826302;29;20090;-70
2020/12/23 08:02:35;;;;;;;2.55;1.60;;;;;;;19.03;57.24;100981.44;4824807;29;20022;-71
2020/12/23 08:05:02;;;;;;;2.80;1.92;;;;;;;19.01;57.07;100976.19;4798328;29;20041;-70
2020/12/23 08:07:28;;;;;;;2.55;1.75;;;;;;;19.01;57.10;100985.81;4833338;29;20057;-70
2020/12/23 08:09:53;;;;;;;3.53;1.92;;;;;;;18.98;57.26;100977.94;4824467;29;20466;-72
2020/12/23 08:12:20;;;;;;;2.58;1.70;;;;;;;18.96;57.13;100980.56;4827607;29;20039;-72
2020/12/23 08:14:46;;;;;;;2.70;1.67;;;;;;;18.99;57.23;100984.94;4806739;29;20122;-69
2020/12/23 08:17:24;;;;;;;2.88;1.85;;;;;;;18.93;57.39;100972.75;4825264;29;20034;-71
2020/12/23 08:20:09;;;;;;;2.60;1.80;;;;;;;18.98;57.11;100977.94;4824748;29;20052;-70
2020/12/23 08:22:37;;;;;;;3.58;1.83;;;;;;;19.03;57.12;100973.56;4820141;29;20465;-71
2020/12/23 08:25:14;;;;;;;2.65;1.67;;;;;;;19.14;56.82;100971.75;4810143;29;20048;-71
2020/12/23 08:27:42;;;;;;;6.78;3.42;;;;;;;19.12;56.87;100970.91;4804989;29;20026;-71
2020/12/23 08:30:11;;;;;;;2.20;1.35;;;;;;;19.15;56.70;100966.50;4833346;29;20033;-71
2020/12/23 08:32:42;;;;;;;3.60;1.58;;;;;;;19.25;56.66;100964.69;4803877;29;20091;-71
2020/12/23 08:35:08;;;;;;;2.67;1.83;;;;;;;19.23;56.56;100966.47;4810762;29;20424;-69
2020/12/23 08:37:35;;;;;;;3.50;1.67;;;;;;;19.21;56.54;100966.47;4819847;29;20034;-69
2020/12/23 08:40:00;;;;;;;2.88;1.95;;;;;;;19.30;56.55;100970.81;4799149;29;20414;-69
2020/12/23 08:42:26;;;;;;;2.85;1.75;;;;;;;19.24;56.60;100955.09;4814822;29;20042;-69
2020/12/23 08:44:56;;;;;;;2.38;1.35;;;;;;;19.24;56.74;100970.81;4787176;29;20478;-69
2020/12/23 08:47:24;;;;;;;2.45;1.80;;;;;;;19.32;56.41;100976.03;4802170;29;20120;-69
2020/12/23 08:49:52;;;;;;;2.55;1.65;;;;;;;19.34;56.38;100967.28;4819415;29;20118;-69
2020/12/23 08:52:18;;;;;;;3.00;1.50;;;;;;;19.30;56.56;100967.31;4821782;29;20037;-69
2020/12/23 08:54:44;;;;;;;2.22;1.60;;;;;;;19.31;56.48;100969.06;4806261;29;20058;-71
2020/12/23 08:57:11;;;;;;;3.22;1.73;;;;;;;19.36;56.33;100964.63;4814947;29;20140;-72
2020/12/23 08:59:40;;;;;;;2.17;1.20;;;;;;;19.31;56.39;100955.94;4803642;29;20031;-71
2020/12/23 09:02:10;;;;;;;2.05;1.38;;;;;;;19.30;56.46;100955.06;4802080;29;20061;-72
2020/12/23 09:04:36;;;;;;;2.55;1.40;;;;;;;19.38;56.39;100960.25;4802925;29;20031;-72
2020/12/23 09:07:01;;;;;;;1.98;1.42;;;;;;;19.33;56.47;100951.56;4803360;29;20046;-71
2020/12/23 09:09:26;;;;;;;2.50;1.45;;;;;;;19.34;56.52;100955.94;4801913;29;20121;-72
2020/12/23 09:11:57;;;;;;;2.55;1.60;;;;;;;19.39;56.37;100944.50;4811581;29;20037;-71
2020/12/23 09:14:27;;;;;;;1.92;1.30;;;;;;;19.37;56.40;100935.78;4801676;29;20114;-72
2020/12/23 09:17:00;;;;;;;1.60;1.20;;;;;;;19.31;56.55;100932.34;4806144;29;20087;-71
2020/12/23 09:19:41;;;;;;;1.08;0.82;;;;;;;19.29;56.75;100927.09;4805234;29;20103;-72
2020/12/23 09:22:06;;;;;;;2.25;1.35;;;;;;;19.24;56.81;100928.88;4802862;29;20049;-71
2020/12/23 09:24:32;;;;;;;1.65;1.30;;;;;;;19.22;56.95;100910.53;4805206;29;20030;-71
2020/12/23 09:27:00;;;;;;;1.83;1.30;;;;;;;19.21;56.93;100918.44;4806342;29;20049;-71
2020/12/23 09:29:40;;;;;;;2.42;1.50;;;;;;;19.16;57.09;100909.72;4805867;29;20072;-71
2020/12/23 09:32:06;;;;;;;2.40;1.30;;;;;;;19.17;56.77;100920.19;4800493;29;20031;-73
2020/12/23 09:34:31;;;;;;;1.45;1.02;;;;;;;19.20;56.92;100916.69;4813641;29;20038;-72
2020/12/23 09:36:57;;;;;;;2.05;1.20;;;;;;;19.24;56.92;100915.75;4796445;29;20039;-71
2020/12/23 09:39:22;;;;;;;2.13;1.13;;;;;;;19.32;56.75;100918.34;4821128;29;20043;-71
2020/12/23 09:42:05;;;;;;;2.03;1.30;;;;;;;19.32;56.80;100920.97;4818134;29;20034;-71
2020/12/23 09:44:33;;;;;;;2.88;1.63;;;;;;;19.38;56.66;100910.41;4817454;29;20488;-72
2020/12/23 09:46:58;;;;;;;2.70;1.40;;;;;;;19.38;56.63;100911.28;4811525;29;20051;-72
2020/12/23 09:49:25;;;;;;;1.67;1.10;;;;;;;19.36;56.77;100912.19;4810919;29;20042;-72
2020/12/23 09:51:51;;;;;;;1.48;1.23;;;;;;;19.40;56.54;100914.78;4809900;29;20042;-71
2020/12/23 09:54:16;;;;;;;1.35;1.00;;;;;;;19.45;56.53;100906.88;4811343;29;20035;-72
2020/12/23 09:56:53;;;;;;;1.55;0.95;;;;;;;19.40;56.83;100896.44;4802110;29;20077;-71
2020/12/23 09:59:19;;;;;;;3.60;1.73;;;;;;;19.42;56.49;100891.16;4807819;29;20054;-71
2020/12/23 10:01:46;;;;;;;2.15;1.10;;;;;;;19.47;56.36;100890.25;4809408;29;20045;-71
2020/12/23 10:04:12;;;;;;;2.97;1.02;;;;;;;19.46;56.39;100891.16;4807736;29;20031;-71
2020/12/23 10:06:37;;;;;;;1.88;1.25;;;;;;;19.45;56.47;100881.53;4808523;29;20045;-71
2020/12/23 10:09:04;;;;;;;1.70;1.08;;;;;;;19.52;56.41;100883.25;4806048;29;20045;-71
2020/12/23 10:11:29;;;;;;;1.75;1.13;;;;;;;19.48;56.53;100883.22;4811345;29;20141;-71
2020/12/23 10:13:56;;;;;;;2.95;1.00;;;;;;;19.45;56.42;100878.91;4820002;29;20471;-71
2020/12/23 10:16:21;;;;;;;2.25;1.10;;;;;;;19.54;56.42;100876.22;4824503;29;20125;-72
2020/12/23 10:18:47;;;;;;;2.70;0.93;;;;;;;19.50;56.47;100866.66;4814939;29;20117;-72
2020/12/23 10:21:12;;;;;;;1.52;1.10;;;;;;;19.47;56.49;100864.03;4807471;29;20038;-71
2020/12/23 10:23:37;;;;;;;2.50;1.10;;;;;;;19.55;56.51;100861.38;4806536;29;20070;-72
2020/12/23 10:26:03;;;;;;;3.13;0.98;;;;;;;19.54;56.35;100865.75;4813727;29;20039;-72
2020/12/23 10:28:28;;;;;;;1.38;0.80;;;;;;;19.51;56.90;100864.88;4780365;30;20047;-71
2020/12/23 10:30:53;;;;;;;3.65;1.20;;;;;;;19.53;56.51;100852.63;4821771;29;20038;-72
2020/12/23 10:33:19;;;;;;;1.08;0.80;;;;;;;19.51;56.43;100844.78;4806430;29;20081;-71
2020/12/23 10:35:44;;;;;;;1.23;0.95;;;;;;;19.48;56.48;100836.91;4807582;29;20058;-71
2020/12/23 10:38:10;;;;;;;1.13;0.80;;;;;;;19.52;56.53;100843.91;4818397;29;20130;-69
2020/12/23 10:40:35;;;;;;;1.77;0.85;;;;;;;19.58;56.34;100849.09;4808217;29;20479;-69
2020/12/23 10:43:02;;;;;;;1.67;0.80;;;;;;;19.51;56.43;100834.28;4809512;29;20030;-71
2020/12/23 10:45:27;;;;;;;1.65;1.02;;;;;;;19.52;56.41;100837.78;4811373;29;20058;-71
2020/12/23 10:47:52;;;;;;;1.45;1.10;;;;;;;19.56;56.30;100824.63;4809952;29;20443;-71
2020/12/23 10:50:18;;;;;;;1.50;1.02;;;;;;;19.58;56.48;100824.63;4809180;29;20038;-71
2020/12/23 10:52:43;;;;;;;1.95;1.40;;;;;;;19.51;56.55;100815.06;4810382;29;20416;-72
2020/12/23 10:55:08;;;;;;;1.50;0.90;;;;;;;19.58;56.45;100815.00;4813407;29;20034;-70
2020/12/23 10:57:34;;;;;;;1.27;0.90;;;;;;;19.60;56.53;100797.47;4808282;29;20410;-74
2020/12/23 10:59:59;;;;;;;1.05;0.75;;;;;;;19.66;56.59;100795.69;4822469;29;20115;-75
2020/12/23 11:02:25;;;;;;;1.10;0.70;;;;;;;19.72;56.45;100785.13;4819667;29;20030;-71
2020/12/23 11:04:50;;;;;;;1.63;0.95;;;;;;;19.73;56.51;100784.25;4816197;29;20486;-72
2020/12/23 11:07:16;;;;;;;2.75;1.00;;;;;;;19.66;56.44;100778.19;4799354;29;20045;-72
2020/12/23 11:09:42;;;;;;;1.85;1.05;;;;;;;19.70;56.54;100779.91;4807512;29;20038;-72
2020/12/23 11:12:07;;;;;;;1.40;1.00;;;;;;;19.69;56.31;100775.53;4804948;29;20039;-72
2020/12/23 11:14:32;;;;;;;2.08;1.08;;;;;;;19.66;56.50;100775.56;4804578;29;20035;-72
2020/12/23 11:16:58;;;;;;;1.55;0.90;;;;;;;19.66;56.52;100774.69;4817452;29;20041;-72
2020/12/23 11:19:23;;;;;;;2.72;1.10;;;;;;;19.69;56.55;100775.53;4789036;29;20366;-72
2020/12/23 11:21:48;;;;;;;1.70;1.00;;;;;;;19.66;56.62;100769.44;4807444;29;20095;-72
2020/12/23 11:24:14;;;;;;;0.95;0.85;;;;;;;19.66;56.63;100762.44;4802482;29;20043;-72